Weather reports worldwide

Advertisment
Lagunas de Somoza, Spain (8123): temperature & dewpoint: 17.05.2019 14:00:00 - 23.05.2019 14:00:00 (CEST)Lagunas de Somoza, Spain (8123): wind speed & gusts: 17.05.2019 14:00:00 - 23.05.2019 14:00:00 (CEST)Lagunas de Somoza, Spain (8123): wind direction: 17.05.2019 14:00:00 - 23.05.2019 14:00:00 (CEST)Lagunas de Somoza, Spain (8123): precipitation: 17.05.2019 14:00:00 - 23.05.2019 14:00:00 (CEST)
Date & Time tt [°C] td [°C] ff [km/h] ff [kn] fx [km/h] fx [kn] dd rr [mm]
23.05.2019 14:00:00 - - - - - - - -
23.05.2019 13:00:00 19,4 8,1 3 2 20 11 E 0,0
23.05.2019 12:00:00 17,6 9,5 6 4 16 9 S 0,0
23.05.2019 11:00:00 17,3 8,7 2 1 8 4 SW 0,0
23.05.2019 10:00:00 16,0 9,0 2 1 11 6 N 0,0
23.05.2019 09:00:00 13,7 9,4 11 6 15 8 ESE 0,0
23.05.2019 08:00:00 11,7 9,3 4 2 10 6 E -
23.05.2019 07:00:00 9,4 7,0 6 4 10 5 ESE 0,0
23.05.2019 06:00:00 11,6 8,3 3 2 9 5 NNW 0,0
23.05.2019 05:00:00 12,1 8,6 2 1 8 5 S 0,0
23.05.2019 04:00:00 11,1 8,2 0 0 9 5 ESE 0,0
23.05.2019 03:00:00 12,9 8,6 5 3 19 10 NW 0,0
23.05.2019 02:00:00 14,7 9,3 13 7 28 15 SE -
23.05.2019 01:00:00 15,0 8,9 17 9 24 13 ESE 0,0
23.05.2019 00:00:00 15,7 9,2 16 9 28 15 ESE 0,0
22.05.2019 23:00:00 15,9 7,4 10 6 17 9 ESE 0,0
22.05.2019 22:00:00 18,3 5,5 13 7 24 13 SE 0,0
22.05.2019 21:00:00 20,9 6,1 14 8 23 13 SE 0,0
22.05.2019 20:00:00 21,0 5,8 10 6 19 10 SE -
22.05.2019 19:00:00 22,9 5,8 7 4 14 8 SE 0,0
22.05.2019 18:00:00 22,9 5,8 9 5 18 10 SE 0,0
22.05.2019 17:00:00 23,4 6,2 3 2 17 9 S 0,0
22.05.2019 16:00:00 22,8 5,7 7 4 23 12 NNW 0,0
22.05.2019 15:00:00 22,6 5,5 6 3 17 9 NW 0,0
22.05.2019 14:00:00 22,2 5,2 8 4 20 11 NNW -
22.05.2019 13:00:00 20,5 3,7 11 6 23 12 NNW 0,0
22.05.2019 12:00:00 18,3 2,2 8 5 19 11 NW 0,0
22.05.2019 11:00:00 16,5 1,0 7 4 16 9 NNW 0,0
22.05.2019 10:00:00 14,9 1,5 6 3 13 7 NW 0,0
22.05.2019 09:00:00 13,0 5,2 1 1 6 3 NW 0,0
22.05.2019 08:00:00 8,0 6,8 4 2 8 5 ESE -
22.05.2019 07:00:00 4,9 4,0 7 4 10 6 SE 0,0
22.05.2019 06:00:00 5,8 4,6 3 1 10 6 SE 0,0
22.05.2019 05:00:00 5,9 4,7 6 3 9 5 SE 0,0
22.05.2019 04:00:00 6,3 4,3 5 3 9 5 ESE 0,0
22.05.2019 03:00:00 8,1 4,9 3 2 7 4 W 0,0
22.05.2019 02:00:00 10,5 5,3 4 2 8 4 WSW -
22.05.2019 01:00:00 13,0 7,0 5 3 24 13 WSW 0,0
22.05.2019 00:00:00 13,5 7,7 12 7 18 10 ESE 0,0
21.05.2019 23:00:00 14,1 5,5 9 5 15 8 ESE 0,0
21.05.2019 22:00:00 16,2 4,9 3 1 5 3 SSE 0,0
21.05.2019 21:00:00 18,1 3,6 3 2 9 5 SSE 0,0
21.05.2019 20:00:00 20,7 3,9 2 1 14 8 NNW -
21.05.2019 19:00:00 20,6 3,8 0 0 17 9 W 0,0
21.05.2019 18:00:00 21,4 4,5 5 3 15 8 NNW 0,0
21.05.2019 17:00:00 19,9 3,2 8 4 15 8 NE 0,0
21.05.2019 16:00:00 19,3 3,5 6 4 26 14 ESE 0,0
21.05.2019 15:00:00 19,8 4,7 5 3 23 12 W 0,0
21.05.2019 14:00:00 17,7 4,0 5 3 24 13 NNE -
21.05.2019 13:00:00 16,3 4,1 5 3 15 8 NW 0,0
21.05.2019 12:00:00 16,0 4,7 4 2 14 8 NW 0,0
21.05.2019 11:00:00 15,1 5,1 6 4 19 10 W 0,0
21.05.2019 10:00:00 13,7 5,4 5 3 18 10 WNW 0,0
21.05.2019 09:00:00 11,3 5,4 5 3 15 8 ESE 0,0
21.05.2019 08:00:00 8,2 5,3 11 6 14 7 ESE -
21.05.2019 07:00:00 5,6 3,3 9 5 13 7 ESE 0,0
21.05.2019 06:00:00 6,1 3,6 10 5 13 7 ESE 0,0
21.05.2019 05:00:00 6,5 2,6 7 4 9 5 ESE 0,0
21.05.2019 04:00:00 9,6 2,9 3 1 11 6 WSW 0,0
21.05.2019 03:00:00 10,3 2,4 5 3 22 12 WSW 0,0
21.05.2019 02:00:00 10,8 2,1 6 4 20 11 ESE -
21.05.2019 01:00:00 11,6 1,3 8 5 19 10 ESE 0,0
21.05.2019 00:00:00 11,7 1,1 9 5 23 13 ESE 0,0
20.05.2019 23:00:00 11,9 1,0 15 8 23 12 ESE 0,0
20.05.2019 22:00:00 12,7 1,7 16 8 30 16 ESE 0,0
20.05.2019 21:00:00 13,8 1,1 15 8 26 14 SSE 0,0
20.05.2019 20:00:00 15,0 1,9 11 6 26 14 SE -
20.05.2019 19:00:00 16,0 2,1 11 6 19 10 S 0,0
20.05.2019 18:00:00 17,4 1,4 3 2 19 11 W 0,0
20.05.2019 17:00:00 18,0 2,3 5 3 17 9 NW 0,0
20.05.2019 16:00:00 16,8 1,7 4 2 22 12 W 0,0
20.05.2019 15:00:00 16,6 2,6 6 3 17 9 WNW 0,0
20.05.2019 14:00:00 14,9 2,5 9 5 20 11 NW -
20.05.2019 13:00:00 14,2 2,5 5 3 18 10 NE 0,0
20.05.2019 12:00:00 12,8 2,4 4 2 19 10 WNW 0,0
20.05.2019 11:00:00 11,0 2,6 9 5 16 9 WNW 0,0
20.05.2019 10:00:00 9,9 3,6 3 1 11 6 NW 0,0
20.05.2019 09:00:00 7,6 4,4 3 2 8 4 N 0,0
20.05.2019 08:00:00 3,9 3,3 3 2 8 4 ESE -
20.05.2019 07:00:00 0,9 0,0 4 2 8 4 SE 0,0
20.05.2019 06:00:00 1,4 -0,4 3 1 4 2 SE 0,0
20.05.2019 05:00:00 5,2 2,4 2 1 4 2 NNW 0,0
20.05.2019 04:00:00 5,2 2,7 0 0 3 2 N 0,0
20.05.2019 03:00:00 4,9 1,4 0 0 4 2 E 0,0
20.05.2019 02:00:00 7,5 3,4 3 2 8 4 W -
20.05.2019 01:00:00 6,5 2,4 3 2 9 5 ESE 0,0
20.05.2019 00:00:00 7,2 1,7 3 2 21 11 WSW 0,0
19.05.2019 23:00:00 8,4 0,6 8 5 17 9 SW 0,0
19.05.2019 22:00:00 10,0 -0,5 10 5 23 12 ESE 0,0
19.05.2019 21:00:00 12,9 0,0 14 8 29 16 SE 0,0
19.05.2019 20:00:00 14,5 -0,7 19 10 29 16 SE -
19.05.2019 19:00:00 15,8 -1,2 14 8 29 15 S 0,0
19.05.2019 18:00:00 16,2 -1,8 11 6 31 17 SSE 0,0
19.05.2019 17:00:00 15,6 -1,9 10 6 26 14 SSE 0,0
19.05.2019 16:00:00 15,0 -2,4 11 6 21 12 SSE 0,0
19.05.2019 15:00:00 14,0 -2,4 9 5 25 13 S 0,0
19.05.2019 14:00:00 13,1 -2,0 16 8 35 19 S -
19.05.2019 13:00:00 12,2 -1,0 9 5 22 12 SSE 0,0
19.05.2019 12:00:00 10,8 0,0 3 2 19 11 N 0,0
19.05.2019 11:00:00 9,2 0,4 10 5 24 13 S 0,0
19.05.2019 10:00:00 7,3 0,5 16 9 24 13 SSE 0,0
19.05.2019 09:00:00 6,0 1,2 12 7 21 12 SE 0,0
19.05.2019 08:00:00 3,6 0,5 8 4 13 7 ESE -
19.05.2019 07:00:00 2,1 -0,5 6 4 20 11 SSE 0,0
19.05.2019 06:00:00 2,7 -1,1 4 2 18 10 SE 0,0
19.05.2019 05:00:00 3,4 -0,2 11 6 21 12 SE 0,0
19.05.2019 04:00:00 4,3 0,5 16 8 35 19 SE 0,0
19.05.2019 03:00:00 4,6 1,1 24 13 40 22 ESE 0,0
19.05.2019 02:00:00 4,6 1,6 20 11 33 18 SE -
19.05.2019 01:00:00 4,7 1,7 24 13 32 18 ESE 0,0
19.05.2019 00:00:00 5,2 1,5 14 7 32 17 ESE 0,0
18.05.2019 23:00:00 6,0 1,9 16 9 32 18 SE 0,0
18.05.2019 22:00:00 6,4 2,3 16 9 36 20 SE 0,0
18.05.2019 21:00:00 7,4 2,3 18 10 39 21 SE 0,0
18.05.2019 20:00:00 9,4 2,3 23 13 45 24 ESE -
18.05.2019 19:00:00 10,2 2,8 22 12 46 25 SSE 0,0
18.05.2019 18:00:00 10,4 2,5 26 14 46 25 SW 0,0
18.05.2019 17:00:00 9,5 1,4 27 15 48 26 WNW 0,0
18.05.2019 16:00:00 12,0 1,6 21 11 39 21 NW 0,0
18.05.2019 15:00:00 10,6 2,2 16 9 39 21 WNW 0,0
18.05.2019 14:00:00 8,4 1,1 18 10 34 18 WNW -
18.05.2019 13:00:00 7,6 1,0 20 11 42 23 NW 0,0
18.05.2019 12:00:00 7,5 0,9 25 14 37 20 WNW 0,0
18.05.2019 11:00:00 6,9 1,4 12 6 39 21 NW 0,0
18.05.2019 10:00:00 6,5 1,6 24 13 46 25 WNW 0,0
18.05.2019 09:00:00 5,4 1,9 21 12 43 23 N 0,0
18.05.2019 08:00:00 4,0 1,6 27 15 40 22 NNE -
18.05.2019 07:00:00 2,9 1,3 26 14 42 23 NNE 0,0
18.05.2019 06:00:00 2,3 1,0 22 12 34 18 NNE 0,0
18.05.2019 05:00:00 2,1 0,8 16 9 21 12 NNE 0,0
18.05.2019 04:00:00 2,3 1,1 12 7 25 13 NNE 0,0
18.05.2019 03:00:00 2,9 1,7 13 7 24 13 NNE 0,1
18.05.2019 02:00:00 3,8 1,4 14 7 22 12 NE -
18.05.2019 01:00:00 4,2 1,2 10 6 29 16 NNE 0,0
18.05.2019 00:00:00 3,8 0,9 10 6 36 19 NE 0,0
17.05.2019 23:00:00 4,2 0,7 13 7 31 17 NE 0,0
17.05.2019 22:00:00 5,0 1,9 16 9 35 19 NE 0,0
17.05.2019 21:00:00 5,2 2,2 24 13 40 22 NNE 0,0
17.05.2019 20:00:00 6,5 2,8 22 12 43 23 NE -
17.05.2019 19:00:00 - - - - - - - -
17.05.2019 18:00:00 9,5 4,1 29 16 55 30 ENE 0,1
17.05.2019 17:00:00 10,4 1,5 34 19 49 26 ENE 0,0
17.05.2019 16:00:00 8,1 5,0 32 17 50 27 E 0,0
17.05.2019 15:00:00 10,7 3,3 29 16 51 28 E 0,0
17.05.2019 14:00:00 8,7 3,3 33 18 50 27 E -

tt = temperature
td = dewpoint
ff = wind speed
fx = gusts
dd = wind direction
rr = precipitation

Next stations